sensor_id;sensor_type;location;lat;lon;timestamp;P1;durP1;ratioP1;P2;durP2;ratioP2
25213;SDS011;13160;51.834;4.706;2023-07-29T00:00:29;11.82;;;3.22;;
25213;SDS011;13160;51.834;4.706;2023-07-29T00:02:58;9.77;;;3.60;;
25213;SDS011;13160;51.834;4.706;2023-07-29T00:05:27;11.23;;;3.35;;
25213;SDS011;13160;51.834;4.706;2023-07-29T00:07:55;8.85;;;3.40;;
25213;SDS011;13160;51.834;4.706;2023-07-29T00:10:23;10.65;;;3.10;;
25213;SDS011;13160;51.834;4.706;2023-07-29T00:12:53;9.38;;;3.20;;
25213;SDS011;13160;51.834;4.706;2023-07-29T00:15:21;8.45;;;3.28;;
25213;SDS011;13160;51.834;4.706;2023-07-29T00:17:50;8.95;;;2.97;;
25213;SDS011;13160;51.834;4.706;2023-07-29T00:20:19;8.85;;;2.95;;
25213;SDS011;13160;51.834;4.706;2023-07-29T00:22:48;7.80;;;3.17;;
25213;SDS011;13160;51.834;4.706;2023-07-29T00:25:19;12.18;;;3.42;;
25213;SDS011;13160;51.834;4.706;2023-07-29T00:27:47;9.10;;;3.40;;
25213;SDS011;13160;51.834;4.706;2023-07-29T00:30:16;8.55;;;3.30;;
25213;SDS011;13160;51.834;4.706;2023-07-29T00:32:44;9.27;;;3.40;;
25213;SDS011;13160;51.834;4.706;2023-07-29T00:35:12;10.55;;;3.50;;
25213;SDS011;13160;51.834;4.706;2023-07-29T00:37:42;10.95;;;3.88;;
25213;SDS011;13160;51.834;4.706;2023-07-29T00:40:12;11.30;;;4.47;;
25213;SDS011;13160;51.834;4.706;2023-07-29T00:42:43;8.80;;;4.03;;
25213;SDS011;13160;51.834;4.706;2023-07-29T00:45:11;9.52;;;4.22;;
25213;SDS011;13160;51.834;4.706;2023-07-29T00:47:40;8.85;;;4.10;;
25213;SDS011;13160;51.834;4.706;2023-07-29T00:50:10;8.80;;;4.13;;
25213;SDS011;13160;51.834;4.706;2023-07-29T00:52:41;11.00;;;4.50;;
25213;SDS011;13160;51.834;4.706;2023-07-29T00:55:10;8.68;;;5.32;;
25213;SDS011;13160;51.834;4.706;2023-07-29T00:57:38;9.82;;;3.92;;
25213;SDS011;13160;51.834;4.706;2023-07-29T01:00:07;12.35;;;4.55;;
25213;SDS011;13160;51.834;4.706;2023-07-29T01:02:37;9.90;;;3.80;;
25213;SDS011;13160;51.834;4.706;2023-07-29T01:05:06;6.63;;;3.88;;
25213;SDS011;13160;51.834;4.706;2023-07-29T01:07:36;12.13;;;4.22;;
25213;SDS011;13160;51.834;4.706;2023-07-29T01:10:15;8.20;;;3.53;;
25213;SDS011;13160;51.834;4.706;2023-07-29T01:12:54;8.50;;;3.10;;
25213;SDS011;13160;51.834;4.706;2023-07-29T01:15:31;8.95;;;3.53;;
25213;SDS011;13160;51.834;4.706;2023-07-29T01:18:11;7.53;;;3.30;;
25213;SDS011;13160;51.834;4.706;2023-07-29T01:20:46;6.68;;;3.00;;
25213;SDS011;13160;51.834;4.706;2023-07-29T01:25:52;6.97;;;3.00;;
25213;SDS011;13160;51.834;4.706;2023-07-29T01:28:21;7.32;;;3.50;;
25213;SDS011;13160;51.834;4.706;2023-07-29T01:30:51;8.40;;;2.72;;
25213;SDS011;13160;51.834;4.706;2023-07-29T01:33:25;5.70;;;2.58;;
25213;SDS011;13160;51.834;4.706;2023-07-29T01:36:02;4.43;;;2.30;;
25213;SDS011;13160;51.834;4.706;2023-07-29T01:38:36;7.65;;;2.40;;
25213;SDS011;13160;51.834;4.706;2023-07-29T01:41:08;6.65;;;2.22;;
25213;SDS011;13160;51.834;4.706;2023-07-29T01:43:37;4.15;;;2.00;;
25213;SDS011;13160;51.834;4.706;2023-07-29T01:46:10;7.90;;;1.80;;
25213;SDS011;13160;51.834;4.706;2023-07-29T01:48:39;5.40;;;1.90;;
25213;SDS011;13160;51.834;4.706;2023-07-29T01:51:07;5.38;;;1.80;;
25213;SDS011;13160;51.834;4.706;2023-07-29T01:53:40;4.63;;;1.98;;
25213;SDS011;13160;51.834;4.706;2023-07-29T01:56:08;5.85;;;2.53;;
25213;SDS011;13160;51.834;4.706;2023-07-29T01:58:37;3.65;;;2.08;;
25213;SDS011;13160;51.834;4.706;2023-07-29T02:01:05;7.43;;;2.25;;
25213;SDS011;13160;51.834;4.706;2023-07-29T02:03:33;5.65;;;2.40;;
25213;SDS011;13160;51.834;4.706;2023-07-29T02:06:01;5.40;;;2.10;;
25213;SDS011;13160;51.834;4.706;2023-07-29T02:08:30;6.70;;;2.20;;
25213;SDS011;13160;51.834;4.706;2023-07-29T02:10:59;4.47;;;2.03;;
25213;SDS011;13160;51.834;4.706;2023-07-29T02:13:28;3.63;;;2.03;;
25213;SDS011;13160;51.834;4.706;2023-07-29T02:15:56;4.20;;;2.08;;
25213;SDS011;13160;51.834;4.706;2023-07-29T02:18:24;5.85;;;2.10;;
25213;SDS011;13160;51.834;4.706;2023-07-29T02:20:52;5.60;;;2.28;;
25213;SDS011;13160;51.834;4.706;2023-07-29T02:23:21;4.55;;;2.20;;
25213;SDS011;13160;51.834;4.706;2023-07-29T02:25:49;5.18;;;2.13;;
25213;SDS011;13160;51.834;4.706;2023-07-29T02:28:19;5.15;;;1.90;;
25213;SDS011;13160;51.834;4.706;2023-07-29T02:30:48;5.90;;;2.40;;
25213;SDS011;13160;51.834;4.706;2023-07-29T02:33:43;5.80;;;2.20;;
25213;SDS011;13160;51.834;4.706;2023-07-29T02:36:12;6.78;;;2.45;;
25213;SDS011;13160;51.834;4.706;2023-07-29T02:38:41;5.40;;;2.20;;
25213;SDS011;13160;51.834;4.706;2023-07-29T02:41:10;6.63;;;2.38;;
25213;SDS011;13160;51.834;4.706;2023-07-29T02:43:41;6.35;;;2.30;;
25213;SDS011;13160;51.834;4.706;2023-07-29T02:46:09;8.68;;;2.38;;
25213;SDS011;13160;51.834;4.706;2023-07-29T02:48:38;4.75;;;2.45;;
25213;SDS011;13160;51.834;4.706;2023-07-29T02:51:06;6.45;;;2.55;;
25213;SDS011;13160;51.834;4.706;2023-07-29T02:53:34;5.25;;;2.25;;
25213;SDS011;13160;51.834;4.706;2023-07-29T02:56:03;5.65;;;2.25;;
25213;SDS011;13160;51.834;4.706;2023-07-29T02:58:36;6.10;;;2.30;;
25213;SDS011;13160;51.834;4.706;2023-07-29T03:01:06;3.92;;;2.30;;
25213;SDS011;13160;51.834;4.706;2023-07-29T03:03:34;4.55;;;2.10;;
25213;SDS011;13160;51.834;4.706;2023-07-29T03:06:04;7.63;;;2.42;;
25213;SDS011;13160;51.834;4.706;2023-07-29T03:08:34;5.78;;;2.38;;
25213;SDS011;13160;51.834;4.706;2023-07-29T03:11:05;6.75;;;2.28;;
25213;SDS011;13160;51.834;4.706;2023-07-29T03:13:34;4.15;;;2.47;;
25213;SDS011;13160;51.834;4.706;2023-07-29T03:16:07;7.00;;;3.45;;
25213;SDS011;13160;51.834;4.706;2023-07-29T03:18:37;5.45;;;2.83;;
25213;SDS011;13160;51.834;4.706;2023-07-29T03:21:06;4.45;;;2.15;;
25213;SDS011;13160;51.834;4.706;2023-07-29T03:23:35;6.57;;;2.45;;
25213;SDS011;13160;51.834;4.706;2023-07-29T03:26:04;6.38;;;2.78;;
25213;SDS011;13160;51.834;4.706;2023-07-29T03:28:37;6.03;;;2.72;;
25213;SDS011;13160;51.834;4.706;2023-07-29T03:31:08;8.65;;;2.70;;
25213;SDS011;13160;51.834;4.706;2023-07-29T03:33:37;7.20;;;2.50;;
25213;SDS011;13160;51.834;4.706;2023-07-29T03:36:05;6.82;;;2.67;;
25213;SDS011;13160;51.834;4.706;2023-07-29T03:38:34;6.95;;;3.22;;
25213;SDS011;13160;51.834;4.706;2023-07-29T03:41:07;7.60;;;3.30;;
25213;SDS011;13160;51.834;4.706;2023-07-29T03:43:36;8.20;;;2.67;;
25213;SDS011;13160;51.834;4.706;2023-07-29T03:46:04;7.57;;;3.40;;
25213;SDS011;13160;51.834;4.706;2023-07-29T03:48:38;6.60;;;2.88;;
25213;SDS011;13160;51.834;4.706;2023-07-29T03:51:06;7.28;;;3.72;;
25213;SDS011;13160;51.834;4.706;2023-07-29T03:53:35;4.72;;;2.80;;
25213;SDS011;13160;51.834;4.706;2023-07-29T03:56:03;6.10;;;2.88;;
25213;SDS011;13160;51.834;4.706;2023-07-29T03:58:31;6.35;;;3.05;;
25213;SDS011;13160;51.834;4.706;2023-07-29T04:01:00;6.95;;;3.35;;
25213;SDS011;13160;51.834;4.706;2023-07-29T04:03:28;6.95;;;3.30;;
25213;SDS011;13160;51.834;4.706;2023-07-29T04:05:58;7.80;;;3.53;;
25213;SDS011;13160;51.834;4.706;2023-07-29T04:08:26;7.47;;;3.25;;
25213;SDS011;13160;51.834;4.706;2023-07-29T04:10:54;7.45;;;3.10;;
25213;SDS011;13160;51.834;4.706;2023-07-29T04:13:23;7.47;;;3.60;;
25213;SDS011;13160;51.834;4.706;2023-07-29T04:15:51;6.05;;;3.35;;
25213;SDS011;13160;51.834;4.706;2023-07-29T04:18:19;7.07;;;4.03;;
25213;SDS011;13160;51.834;4.706;2023-07-29T04:20:48;9.10;;;4.18;;
25213;SDS011;13160;51.834;4.706;2023-07-29T04:23:17;8.85;;;4.13;;
25213;SDS011;13160;51.834;4.706;2023-07-29T04:25:45;10.20;;;4.18;;
25213;SDS011;13160;51.834;4.706;2023-07-29T04:28:14;6.40;;;3.75;;
25213;SDS011;13160;51.834;4.706;2023-07-29T04:30:42;10.65;;;4.60;;
25213;SDS011;13160;51.834;4.706;2023-07-29T04:33:10;10.30;;;4.13;;
25213;SDS011;13160;51.834;4.706;2023-07-29T04:35:38;8.35;;;4.40;;
25213;SDS011;13160;51.834;4.706;2023-07-29T04:38:07;10.18;;;4.50;;
25213;SDS011;13160;51.834;4.706;2023-07-29T04:40:36;9.85;;;4.50;;
25213;SDS011;13160;51.834;4.706;2023-07-29T04:43:05;7.70;;;4.03;;
25213;SDS011;13160;51.834;4.706;2023-07-29T04:45:33;11.00;;;4.25;;
25213;SDS011;13160;51.834;4.706;2023-07-29T04:48:01;10.88;;;4.53;;
25213;SDS011;13160;51.834;4.706;2023-07-29T04:50:30;11.85;;;4.65;;
25213;SDS011;13160;51.834;4.706;2023-07-29T04:52:58;9.68;;;5.05;;
25213;SDS011;13160;51.834;4.706;2023-07-29T04:55:26;11.57;;;4.60;;
25213;SDS011;13160;51.834;4.706;2023-07-29T04:57:56;10.60;;;4.93;;
25213;SDS011;13160;51.834;4.706;2023-07-29T05:00:26;7.40;;;4.07;;
25213;SDS011;13160;51.834;4.706;2023-07-29T05:02:54;12.98;;;4.72;;
25213;SDS011;13160;51.834;4.706;2023-07-29T05:05:23;10.38;;;4.78;;
25213;SDS011;13160;51.834;4.706;2023-07-29T05:07:51;10.02;;;4.85;;
25213;SDS011;13160;51.834;4.706;2023-07-29T05:10:19;10.05;;;5.00;;
25213;SDS011;13160;51.834;4.706;2023-07-29T05:12:47;9.13;;;4.97;;
25213;SDS011;13160;51.834;4.706;2023-07-29T05:15:17;12.50;;;5.30;;
25213;SDS011;13160;51.834;4.706;2023-07-29T05:17:46;9.88;;;5.07;;
25213;SDS011;13160;51.834;4.706;2023-07-29T05:20:14;13.07;;;5.30;;
25213;SDS011;13160;51.834;4.706;2023-07-29T05:22:43;7.68;;;5.07;;
25213;SDS011;13160;51.834;4.706;2023-07-29T05:25:11;13.25;;;5.25;;
25213;SDS011;13160;51.834;4.706;2023-07-29T05:27:39;13.00;;;5.72;;
25213;SDS011;13160;51.834;4.706;2023-07-29T05:30:08;10.52;;;5.47;;
25213;SDS011;13160;51.834;4.706;2023-07-29T05:32:38;8.77;;;5.00;;
25213;SDS011;13160;51.834;4.706;2023-07-29T05:35:07;10.10;;;5.25;;
25213;SDS011;13160;51.834;4.706;2023-07-29T05:37:37;10.75;;;5.00;;
25213;SDS011;13160;51.834;4.706;2023-07-29T05:40:07;10.05;;;5.43;;
25213;SDS011;13160;51.834;4.706;2023-07-29T05:42:36;15.13;;;4.90;;
25213;SDS011;13160;51.834;4.706;2023-07-29T05:45:05;11.20;;;5.32;;
25213;SDS011;13160;51.834;4.706;2023-07-29T05:47:34;10.38;;;5.07;;
25213;SDS011;13160;51.834;4.706;2023-07-29T05:50:04;10.82;;;4.93;;
25213;SDS011;13160;51.834;4.706;2023-07-29T05:52:34;11.98;;;5.13;;
25213;SDS011;13160;51.834;4.706;2023-07-29T05:55:03;8.80;;;5.22;;
25213;SDS011;13160;51.834;4.706;2023-07-29T05:57:32;8.05;;;4.47;;
25213;SDS011;13160;51.834;4.706;2023-07-29T06:00:00;10.13;;;5.40;;
25213;SDS011;13160;51.834;4.706;2023-07-29T06:02:29;8.70;;;5.10;;
25213;SDS011;13160;51.834;4.706;2023-07-29T06:04:57;10.38;;;4.80;;
25213;SDS011;13160;51.834;4.706;2023-07-29T06:07:27;13.60;;;5.93;;
25213;SDS011;13160;51.834;4.706;2023-07-29T06:09:56;8.98;;;5.18;;
25213;SDS011;13160;51.834;4.706;2023-07-29T06:12:25;12.02;;;6.15;;
25213;SDS011;13160;51.834;4.706;2023-07-29T06:14:53;11.88;;;5.40;;
25213;SDS011;13160;51.834;4.706;2023-07-29T06:17:21;10.13;;;5.40;;
25213;SDS011;13160;51.834;4.706;2023-07-29T06:19:50;11.55;;;5.22;;
25213;SDS011;13160;51.834;4.706;2023-07-29T06:22:18;8.43;;;4.95;;
25213;SDS011;13160;51.834;4.706;2023-07-29T06:24:48;9.43;;;5.22;;
25213;SDS011;13160;51.834;4.706;2023-07-29T06:27:16;9.38;;;5.53;;
25213;SDS011;13160;51.834;4.706;2023-07-29T06:29:44;12.25;;;4.85;;
25213;SDS011;13160;51.834;4.706;2023-07-29T06:32:12;7.80;;;4.65;;
25213;SDS011;13160;51.834;4.706;2023-07-29T06:34:41;8.95;;;4.50;;
25213;SDS011;13160;51.834;4.706;2023-07-29T06:37:09;8.32;;;4.35;;
25213;SDS011;13160;51.834;4.706;2023-07-29T06:39:38;7.90;;;4.78;;
25213;SDS011;13160;51.834;4.706;2023-07-29T06:42:07;9.63;;;4.75;;
25213;SDS011;13160;51.834;4.706;2023-07-29T06:44:36;9.88;;;4.43;;
25213;SDS011;13160;51.834;4.706;2023-07-29T06:47:04;9.18;;;4.10;;
25213;SDS011;13160;51.834;4.706;2023-07-29T06:49:33;6.75;;;3.88;;
25213;SDS011;13160;51.834;4.706;2023-07-29T06:52:01;7.00;;;4.03;;
25213;SDS011;13160;51.834;4.706;2023-07-29T06:54:30;7.32;;;3.42;;
25213;SDS011;13160;51.834;4.706;2023-07-29T06:56:59;5.40;;;3.28;;
25213;SDS011;13160;51.834;4.706;2023-07-29T06:59:28;10.65;;;3.47;;
25213;SDS011;13160;51.834;4.706;2023-07-29T07:01:57;6.68;;;2.80;;
25213;SDS011;13160;51.834;4.706;2023-07-29T07:04:26;7.18;;;2.90;;
25213;SDS011;13160;51.834;4.706;2023-07-29T07:06:54;5.82;;;3.00;;
25213;SDS011;13160;51.834;4.706;2023-07-29T07:09:23;7.40;;;3.05;;
25213;SDS011;13160;51.834;4.706;2023-07-29T07:11:51;7.00;;;3.15;;
25213;SDS011;13160;51.834;4.706;2023-07-29T07:14:20;9.73;;;3.88;;
25213;SDS011;13160;51.834;4.706;2023-07-29T07:16:49;5.85;;;3.17;;
25213;SDS011;13160;51.834;4.706;2023-07-29T07:19:17;6.30;;;3.40;;
25213;SDS011;13160;51.834;4.706;2023-07-29T07:21:46;10.10;;;3.28;;
25213;SDS011;13160;51.834;4.706;2023-07-29T07:24:14;5.80;;;3.00;;
25213;SDS011;13160;51.834;4.706;2023-07-29T07:26:42;6.50;;;3.50;;
25213;SDS011;13160;51.834;4.706;2023-07-29T07:29:10;6.70;;;3.70;;
25213;SDS011;13160;51.834;4.706;2023-07-29T07:31:39;5.40;;;3.17;;
25213;SDS011;13160;51.834;4.706;2023-07-29T07:34:08;11.65;;;4.13;;
25213;SDS011;13160;51.834;4.706;2023-07-29T07:36:37;7.25;;;3.90;;
25213;SDS011;13160;51.834;4.706;2023-07-29T07:39:09;8.48;;;4.85;;
25213;SDS011;13160;51.834;4.706;2023-07-29T07:41:37;8.98;;;4.43;;
25213;SDS011;13160;51.834;4.706;2023-07-29T07:44:06;7.15;;;4.55;;
25213;SDS011;13160;51.834;4.706;2023-07-29T07:46:34;7.35;;;4.20;;
25213;SDS011;13160;51.834;4.706;2023-07-29T07:49:03;7.93;;;5.10;;
25213;SDS011;13160;51.834;4.706;2023-07-29T07:51:33;8.98;;;4.80;;
25213;SDS011;13160;51.834;4.706;2023-07-29T07:54:01;10.68;;;4.85;;
25213;SDS011;13160;51.834;4.706;2023-07-29T07:56:29;11.07;;;4.30;;
25213;SDS011;13160;51.834;4.706;2023-07-29T07:58:58;10.43;;;4.65;;
25213;SDS011;13160;51.834;4.706;2023-07-29T08:01:26;7.65;;;4.72;;
25213;SDS011;13160;51.834;4.706;2023-07-29T08:03:54;9.73;;;4.90;;
25213;SDS011;13160;51.834;4.706;2023-07-29T08:06:23;8.93;;;4.43;;
25213;SDS011;13160;51.834;4.706;2023-07-29T08:08:52;7.72;;;4.80;;
25213;SDS011;13160;51.834;4.706;2023-07-29T08:11:21;7.68;;;4.03;;
25213;SDS011;13160;51.834;4.706;2023-07-29T08:13:49;6.05;;;4.07;;
25213;SDS011;13160;51.834;4.706;2023-07-29T08:16:17;7.70;;;3.83;;
25213;SDS011;13160;51.834;4.706;2023-07-29T08:18:46;9.50;;;3.90;;
25213;SDS011;13160;51.834;4.706;2023-07-29T08:21:14;8.80;;;4.13;;
25213;SDS011;13160;51.834;4.706;2023-07-29T08:23:43;8.48;;;3.97;;
25213;SDS011;13160;51.834;4.706;2023-07-29T08:26:12;4.93;;;3.38;;
25213;SDS011;13160;51.834;4.706;2023-07-29T08:28:43;8.45;;;3.63;;
25213;SDS011;13160;51.834;4.706;2023-07-29T08:31:11;5.40;;;3.35;;
25213;SDS011;13160;51.834;4.706;2023-07-29T08:33:39;5.03;;;3.35;;
25213;SDS011;13160;51.834;4.706;2023-07-29T08:36:08;5.60;;;3.67;;
25213;SDS011;13160;51.834;4.706;2023-07-29T08:38:36;7.65;;;3.28;;
25213;SDS011;13160;51.834;4.706;2023-07-29T08:41:06;9.77;;;3.85;;
25213;SDS011;13160;51.834;4.706;2023-07-29T08:43:43;7.72;;;3.50;;
25213;SDS011;13160;51.834;4.706;2023-07-29T08:46:18;5.88;;;3.60;;
25213;SDS011;13160;51.834;4.706;2023-07-29T08:48:47;6.40;;;3.10;;
25213;SDS011;13160;51.834;4.706;2023-07-29T08:51:16;5.13;;;3.10;;
25213;SDS011;13160;51.834;4.706;2023-07-29T08:53:45;5.50;;;3.05;;
25213;SDS011;13160;51.834;4.706;2023-07-29T08:56:16;6.43;;;3.35;;
25213;SDS011;13160;51.834;4.706;2023-07-29T08:58:44;5.10;;;2.80;;
25213;SDS011;13160;51.834;4.706;2023-07-29T09:01:14;5.30;;;3.20;;
25213;SDS011;13160;51.834;4.706;2023-07-29T09:03:43;6.30;;;2.95;;
25213;SDS011;13160;51.834;4.706;2023-07-29T09:06:11;5.90;;;3.17;;
25213;SDS011;13160;51.834;4.706;2023-07-29T09:08:42;5.95;;;2.85;;
25213;SDS011;13160;51.834;4.706;2023-07-29T09:11:13;6.32;;;2.70;;
25213;SDS011;13160;51.834;4.706;2023-07-29T09:13:46;4.18;;;2.40;;
25213;SDS011;13160;51.834;4.706;2023-07-29T09:16:15;6.82;;;3.00;;
25213;SDS011;13160;51.834;4.706;2023-07-29T09:18:50;5.10;;;3.13;;
25213;SDS011;13160;51.834;4.706;2023-07-29T09:21:22;5.82;;;2.63;;
25213;SDS011;13160;51.834;4.706;2023-07-29T09:23:53;6.18;;;3.00;;
25213;SDS011;13160;51.834;4.706;2023-07-29T09:26:26;4.47;;;2.70;;
25213;SDS011;13160;51.834;4.706;2023-07-29T09:28:56;5.85;;;2.28;;
25213;SDS011;13160;51.834;4.706;2023-07-29T09:31:27;5.15;;;2.55;;
25213;SDS011;13160;51.834;4.706;2023-07-29T09:34:02;5.97;;;2.50;;
25213;SDS011;13160;51.834;4.706;2023-07-29T09:36:32;4.78;;;2.50;;
25213;SDS011;13160;51.834;4.706;2023-07-29T09:39:10;5.75;;;2.60;;
25213;SDS011;13160;51.834;4.706;2023-07-29T09:41:41;5.53;;;2.58;;
25213;SDS011;13160;51.834;4.706;2023-07-29T09:44:20;7.03;;;2.50;;
25213;SDS011;13160;51.834;4.706;2023-07-29T09:46:49;6.20;;;2.25;;
25213;SDS011;13160;51.834;4.706;2023-07-29T09:49:17;4.15;;;1.80;;
25213;SDS011;13160;51.834;4.706;2023-07-29T09:51:45;5.00;;;2.03;;
25213;SDS011;13160;51.834;4.706;2023-07-29T09:54:15;4.43;;;1.77;;
25213;SDS011;13160;51.834;4.706;2023-07-29T09:56:48;4.25;;;1.75;;
25213;SDS011;13160;51.834;4.706;2023-07-29T09:59:20;4.35;;;1.75;;
25213;SDS011;13160;51.834;4.706;2023-07-29T10:01:51;5.97;;;1.70;;
25213;SDS011;13160;51.834;4.706;2023-07-29T10:04:22;3.70;;;1.63;;
25213;SDS011;13160;51.834;4.706;2023-07-29T10:06:51;3.90;;;1.92;;
25213;SDS011;13160;51.834;4.706;2023-07-29T10:09:21;3.47;;;1.88;;
25213;SDS011;13160;51.834;4.706;2023-07-29T10:11:52;4.20;;;1.85;;
25213;SDS011;13160;51.834;4.706;2023-07-29T10:14:24;5.65;;;1.95;;
25213;SDS011;13160;51.834;4.706;2023-07-29T10:16:55;5.05;;;1.83;;
25213;SDS011;13160;51.834;4.706;2023-07-29T10:19:25;4.22;;;1.80;;
25213;SDS011;13160;51.834;4.706;2023-07-29T10:21:54;3.42;;;1.88;;
25213;SDS011;13160;51.834;4.706;2023-07-29T10:24:29;3.88;;;1.75;;
25213;SDS011;13160;51.834;4.706;2023-07-29T10:27:01;4.40;;;2.10;;
25213;SDS011;13160;51.834;4.706;2023-07-29T10:29:31;3.40;;;1.70;;
25213;SDS011;13160;51.834;4.706;2023-07-29T10:32:01;5.53;;;1.92;;
25213;SDS011;13160;51.834;4.706;2023-07-29T10:34:31;5.10;;;2.17;;
25213;SDS011;13160;51.834;4.706;2023-07-29T10:37:02;4.28;;;2.28;;
25213;SDS011;13160;51.834;4.706;2023-07-29T10:39:37;5.65;;;2.00;;
25213;SDS011;13160;51.834;4.706;2023-07-29T10:42:07;5.47;;;2.55;;
25213;SDS011;13160;51.834;4.706;2023-07-29T10:44:45;4.20;;;2.20;;
25213;SDS011;13160;51.834;4.706;2023-07-29T10:47:16;4.07;;;2.20;;
25213;SDS011;13160;51.834;4.706;2023-07-29T10:49:50;3.75;;;2.40;;
25213;SDS011;13160;51.834;4.706;2023-07-29T10:52:28;8.35;;;2.72;;
25213;SDS011;13160;51.834;4.706;2023-07-29T10:55:27;4.85;;;2.40;;
25213;SDS011;13160;51.834;4.706;2023-07-29T10:58:07;5.63;;;2.58;;
25213;SDS011;13160;51.834;4.706;2023-07-29T11:00:41;6.75;;;2.92;;
25213;SDS011;13160;51.834;4.706;2023-07-29T11:03:11;4.90;;;3.13;;
25213;SDS011;13160;51.834;4.706;2023-07-29T11:05:53;6.13;;;3.42;;
25213;SDS011;13160;51.834;4.706;2023-07-29T11:08:34;6.47;;;3.40;;
25213;SDS011;13160;51.834;4.706;2023-07-29T11:19:10;5.22;;;3.20;;
25213;SDS011;13160;51.834;4.706;2023-07-29T11:21:55;8.68;;;4.05;;
25213;SDS011;13160;51.834;4.706;2023-07-29T11:24:23;5.82;;;3.13;;
25213;SDS011;13160;51.834;4.706;2023-07-29T11:26:58;8.48;;;3.67;;
25213;SDS011;13160;51.834;4.706;2023-07-29T11:29:30;5.45;;;3.00;;
25213;SDS011;13160;51.834;4.706;2023-07-29T11:32:01;7.45;;;3.20;;
25213;SDS011;13160;51.834;4.706;2023-07-29T11:34:36;4.78;;;2.80;;
25213;SDS011;13160;51.834;4.706;2023-07-29T11:37:06;5.60;;;2.97;;
25213;SDS011;13160;51.834;4.706;2023-07-29T11:39:39;4.53;;;2.50;;
25213;SDS011;13160;51.834;4.706;2023-07-29T11:42:10;4.68;;;2.35;;
25213;SDS011;13160;51.834;4.706;2023-07-29T11:44:39;4.43;;;2.50;;
25213;SDS011;13160;51.834;4.706;2023-07-29T11:47:08;6.38;;;2.35;;
25213;SDS011;13160;51.834;4.706;2023-07-29T11:49:40;4.53;;;2.38;;
25213;SDS011;13160;51.834;4.706;2023-07-29T11:52:09;4.75;;;2.53;;
25213;SDS011;13160;51.834;4.706;2023-07-29T11:54:39;4.55;;;2.22;;
25213;SDS011;13160;51.834;4.706;2023-07-29T11:57:07;3.90;;;2.00;;
25213;SDS011;13160;51.834;4.706;2023-07-29T11:59:37;4.20;;;2.42;;
25213;SDS011;13160;51.834;4.706;2023-07-29T12:02:06;4.38;;;2.38;;
25213;SDS011;13160;51.834;4.706;2023-07-29T12:04:42;3.88;;;2.20;;
25213;SDS011;13160;51.834;4.706;2023-07-29T12:07:13;5.20;;;2.47;;
25213;SDS011;13160;51.834;4.706;2023-07-29T12:09:48;5.68;;;2.60;;
25213;SDS011;13160;51.834;4.706;2023-07-29T12:12:18;6.60;;;2.72;;
25213;SDS011;13160;51.834;4.706;2023-07-29T12:14:46;5.80;;;2.75;;
25213;SDS011;13160;51.834;4.706;2023-07-29T12:17:14;5.15;;;2.85;;
25213;SDS011;13160;51.834;4.706;2023-07-29T12:19:44;6.45;;;3.00;;
25213;SDS011;13160;51.834;4.706;2023-07-29T12:22:17;5.03;;;3.60;;
25213;SDS011;13160;51.834;4.706;2023-07-29T12:24:47;8.35;;;3.55;;
25213;SDS011;13160;51.834;4.706;2023-07-29T12:27:19;5.38;;;3.15;;
25213;SDS011;13160;51.834;4.706;2023-07-29T12:29:51;5.10;;;3.30;;
25213;SDS011;13160;51.834;4.706;2023-07-29T12:32:24;4.82;;;3.20;;
25213;SDS011;13160;51.834;4.706;2023-07-29T12:34:54;5.30;;;2.70;;
25213;SDS011;13160;51.834;4.706;2023-07-29T12:37:30;4.88;;;2.67;;
25213;SDS011;13160;51.834;4.706;2023-07-29T12:40:01;5.10;;;2.97;;
25213;SDS011;13160;51.834;4.706;2023-07-29T12:42:31;5.18;;;3.10;;
25213;SDS011;13160;51.834;4.706;2023-07-29T12:44:59;4.07;;;2.72;;
25213;SDS011;13160;51.834;4.706;2023-07-29T12:47:27;4.20;;;2.90;;
25213;SDS011;13160;51.834;4.706;2023-07-29T12:49:57;7.85;;;3.38;;
25213;SDS011;13160;51.834;4.706;2023-07-29T12:52:26;4.93;;;2.97;;
25213;SDS011;13160;51.834;4.706;2023-07-29T12:54:54;5.13;;;2.65;;
25213;SDS011;13160;51.834;4.706;2023-07-29T12:57:22;4.00;;;2.17;;
25213;SDS011;13160;51.834;4.706;2023-07-29T12:59:50;5.20;;;2.60;;
25213;SDS011;13160;51.834;4.706;2023-07-29T13:02:19;4.75;;;2.40;;
25213;SDS011;13160;51.834;4.706;2023-07-29T13:04:47;5.45;;;2.20;;
25213;SDS011;13160;51.834;4.706;2023-07-29T13:07:17;4.43;;;2.00;;
25213;SDS011;13160;51.834;4.706;2023-07-29T13:09:45;3.40;;;1.85;;
25213;SDS011;13160;51.834;4.706;2023-07-29T13:12:13;4.15;;;1.90;;
25213;SDS011;13160;51.834;4.706;2023-07-29T13:14:41;4.93;;;2.03;;
25213;SDS011;13160;51.834;4.706;2023-07-29T13:17:10;6.50;;;1.95;;
25213;SDS011;13160;51.834;4.706;2023-07-29T13:19:38;6.43;;;1.92;;
25213;SDS011;13160;51.834;4.706;2023-07-29T13:22:06;6.00;;;1.80;;
25213;SDS011;13160;51.834;4.706;2023-07-29T13:24:36;4.05;;;1.70;;
25213;SDS011;13160;51.834;4.706;2023-07-29T13:27:04;4.82;;;2.20;;
25213;SDS011;13160;51.834;4.706;2023-07-29T13:29:33;3.90;;;1.83;;
25213;SDS011;13160;51.834;4.706;2023-07-29T13:32:01;4.70;;;2.15;;
25213;SDS011;13160;51.834;4.706;2023-07-29T13:34:30;4.13;;;1.70;;
25213;SDS011;13160;51.834;4.706;2023-07-29T13:37:01;4.65;;;1.83;;
25213;SDS011;13160;51.834;4.706;2023-07-29T13:39:30;3.13;;;1.42;;
25213;SDS011;13160;51.834;4.706;2023-07-29T13:42:00;3.42;;;1.55;;
25213;SDS011;13160;51.834;4.706;2023-07-29T13:44:28;5.13;;;1.42;;
25213;SDS011;13160;51.834;4.706;2023-07-29T13:46:57;3.80;;;1.55;;
25213;SDS011;13160;51.834;4.706;2023-07-29T13:49:25;3.03;;;1.45;;
25213;SDS011;13160;51.834;4.706;2023-07-29T13:51:53;3.42;;;1.40;;
25213;SDS011;13160;51.834;4.706;2023-07-29T13:54:21;3.70;;;1.35;;
25213;SDS011;13160;51.834;4.706;2023-07-29T13:56:50;3.28;;;1.15;;
25213;SDS011;13160;51.834;4.706;2023-07-29T13:59:21;2.92;;;1.33;;
25213;SDS011;13160;51.834;4.706;2023-07-29T14:01:49;2.92;;;1.42;;
25213;SDS011;13160;51.834;4.706;2023-07-29T14:04:17;2.92;;;1.10;;
25213;SDS011;13160;51.834;4.706;2023-07-29T14:06:46;4.93;;;1.30;;
25213;SDS011;13160;51.834;4.706;2023-07-29T14:09:23;3.67;;;1.38;;
25213;SDS011;13160;51.834;4.706;2023-07-29T14:11:51;4.55;;;1.45;;
25213;SDS011;13160;51.834;4.706;2023-07-29T14:14:22;3.22;;;1.27;;
25213;SDS011;13160;51.834;4.706;2023-07-29T14:16:50;5.70;;;1.70;;
25213;SDS011;13160;51.834;4.706;2023-07-29T14:19:18;3.80;;;1.40;;
25213;SDS011;13160;51.834;4.706;2023-07-29T14:21:47;3.20;;;1.60;;
25213;SDS011;13160;51.834;4.706;2023-07-29T14:24:16;5.03;;;1.50;;
25213;SDS011;13160;51.834;4.706;2023-07-29T14:26:45;3.53;;;1.40;;
25213;SDS011;13160;51.834;4.706;2023-07-29T14:29:13;3.58;;;1.40;;
25213;SDS011;13160;51.834;4.706;2023-07-29T14:31:42;3.53;;;1.60;;
25213;SDS011;13160;51.834;4.706;2023-07-29T14:34:11;4.22;;;1.70;;
25213;SDS011;13160;51.834;4.706;2023-07-29T14:36:39;4.35;;;1.70;;
25213;SDS011;13160;51.834;4.706;2023-07-29T14:39:07;3.53;;;1.58;;
25213;SDS011;13160;51.834;4.706;2023-07-29T14:41:36;3.20;;;1.80;;
25213;SDS011;13160;51.834;4.706;2023-07-29T14:44:04;4.28;;;1.80;;
25213;SDS011;13160;51.834;4.706;2023-07-29T14:46:33;4.97;;;2.05;;
25213;SDS011;13160;51.834;4.706;2023-07-29T14:49:03;5.60;;;2.55;;
25213;SDS011;13160;51.834;4.706;2023-07-29T14:51:31;3.92;;;2.05;;
25213;SDS011;13160;51.834;4.706;2023-07-29T14:53:59;5.95;;;2.30;;
25213;SDS011;13160;51.834;4.706;2023-07-29T14:56:28;7.15;;;2.67;;
25213;SDS011;13160;51.834;4.706;2023-07-29T14:58:56;6.28;;;3.47;;
25213;SDS011;13160;51.834;4.706;2023-07-29T15:01:26;7.15;;;3.40;;
25213;SDS011;13160;51.834;4.706;2023-07-29T15:03:54;5.82;;;3.35;;
25213;SDS011;13160;51.834;4.706;2023-07-29T15:06:24;6.35;;;3.72;;
25213;SDS011;13160;51.834;4.706;2023-07-29T15:08:52;6.65;;;3.67;;
25213;SDS011;13160;51.834;4.706;2023-07-29T15:11:21;6.25;;;3.83;;